sensor_id;sensor_type;location;lat;lon;timestamp;P1;durP1;ratioP1;P2;durP2;ratioP2
25359;SDS011;13311;51.386;0.016;2024-02-04T00:04:45;2.38;;;0.73;;
25359;SDS011;13311;51.386;0.016;2024-02-04T00:09:46;2.45;;;0.77;;
25359;SDS011;13311;51.386;0.016;2024-02-04T00:14:47;0.77;;;0.50;;
25359;SDS011;13311;51.386;0.016;2024-02-04T00:19:51;1.60;;;1.10;;
25359;SDS011;13311;51.386;0.016;2024-02-04T00:24:51;1.05;;;0.70;;
25359;SDS011;13311;51.386;0.016;2024-02-04T00:29:52;1.42;;;0.93;;
25359;SDS011;13311;51.386;0.016;2024-02-04T00:34:53;1.55;;;0.60;;
25359;SDS011;13311;51.386;0.016;2024-02-04T00:39:54;0.40;;;0.40;;
25359;SDS011;13311;51.386;0.016;2024-02-04T00:44:54;0.50;;;0.30;;
25359;SDS011;13311;51.386;0.016;2024-02-04T00:49:55;1.52;;;0.30;;
25359;SDS011;13311;51.386;0.016;2024-02-04T00:54:56;0.85;;;0.47;;
25359;SDS011;13311;51.386;0.016;2024-02-04T00:59:56;0.20;;;0.20;;
25359;SDS011;13311;51.386;0.016;2024-02-04T01:04:57;0.45;;;0.30;;
25359;SDS011;13311;51.386;0.016;2024-02-04T01:09:58;0.85;;;0.40;;
25359;SDS011;13311;51.386;0.016;2024-02-04T01:14:59;0.65;;;0.22;;
25359;SDS011;13311;51.386;0.016;2024-02-04T01:19:59;0.32;;;0.30;;
25359;SDS011;13311;51.386;0.016;2024-02-04T01:25:00;0.55;;;0.40;;
25359;SDS011;13311;51.386;0.016;2024-02-04T01:30:01;0.30;;;0.20;;
25359;SDS011;13311;51.386;0.016;2024-02-04T01:35:02;1.60;;;0.30;;
25359;SDS011;13311;51.386;0.016;2024-02-04T01:40:04;0.32;;;0.30;;
25359;SDS011;13311;51.386;0.016;2024-02-04T01:45:05;0.98;;;0.40;;
25359;SDS011;13311;51.386;0.016;2024-02-04T01:50:07;0.88;;;0.57;;
25359;SDS011;13311;51.386;0.016;2024-02-04T01:55:09;0.75;;;0.60;;
25359;SDS011;13311;51.386;0.016;2024-02-04T02:00:11;0.80;;;0.60;;
25359;SDS011;13311;51.386;0.016;2024-02-04T02:05:13;0.70;;;0.60;;
25359;SDS011;13311;51.386;0.016;2024-02-04T02:10:14;0.35;;;0.32;;
25359;SDS011;13311;51.386;0.016;2024-02-04T02:15:15;0.82;;;0.50;;
25359;SDS011;13311;51.386;0.016;2024-02-04T02:20:23;0.43;;;0.43;;
25359;SDS011;13311;51.386;0.016;2024-02-04T02:25:53;0.40;;;0.25;;
25359;SDS011;13311;51.386;0.016;2024-02-04T02:30:56;0.30;;;0.30;;
25359;SDS011;13311;51.386;0.016;2024-02-04T02:35:57;0.70;;;0.70;;
25359;SDS011;13311;51.386;0.016;2024-02-04T02:41:03;0.82;;;0.40;;
25359;SDS011;13311;51.386;0.016;2024-02-04T02:46:08;0.35;;;0.20;;
25359;SDS011;13311;51.386;0.016;2024-02-04T02:51:09;0.50;;;0.38;;
25359;SDS011;13311;51.386;0.016;2024-02-04T02:56:10;0.30;;;0.20;;
25359;SDS011;13311;51.386;0.016;2024-02-04T03:01:11;1.25;;;0.40;;
25359;SDS011;13311;51.386;0.016;2024-02-04T03:06:12;0.17;;;0.15;;
25359;SDS011;13311;51.386;0.016;2024-02-04T03:11:13;1.00;;;0.30;;
25359;SDS011;13311;51.386;0.016;2024-02-04T03:16:13;0.30;;;0.30;;
25359;SDS011;13311;51.386;0.016;2024-02-04T03:21:15;0.30;;;0.30;;
25359;SDS011;13311;51.386;0.016;2024-02-04T03:26:17;0.57;;;0.38;;
25359;SDS011;13311;51.386;0.016;2024-02-04T03:31:19;0.40;;;0.30;;
25359;SDS011;13311;51.386;0.016;2024-02-04T03:36:22;0.55;;;0.20;;
25359;SDS011;13311;51.386;0.016;2024-02-04T03:41:24;0.30;;;0.25;;
25359;SDS011;13311;51.386;0.016;2024-02-04T03:46:25;0.38;;;0.30;;
25359;SDS011;13311;51.386;0.016;2024-02-04T03:51:25;0.40;;;0.28;;
25359;SDS011;13311;51.386;0.016;2024-02-04T03:56:26;0.22;;;0.10;;
25359;SDS011;13311;51.386;0.016;2024-02-04T04:01:27;0.73;;;0.25;;
25359;SDS011;13311;51.386;0.016;2024-02-04T04:06:28;0.20;;;0.20;;
25359;SDS011;13311;51.386;0.016;2024-02-04T04:11:28;0.52;;;0.20;;
25359;SDS011;13311;51.386;0.016;2024-02-04T04:16:29;0.40;;;0.10;;
25359;SDS011;13311;51.386;0.016;2024-02-04T04:21:30;0.43;;;0.10;;
25359;SDS011;13311;51.386;0.016;2024-02-04T04:26:30;0.30;;;0.10;;
25359;SDS011;13311;51.386;0.016;2024-02-04T04:31:31;0.43;;;0.15;;
25359;SDS011;13311;51.386;0.016;2024-02-04T04:36:32;0.30;;;0.10;;
25359;SDS011;13311;51.386;0.016;2024-02-04T04:41:33;0.40;;;0.20;;
25359;SDS011;13311;51.386;0.016;2024-02-04T04:46:33;0.55;;;0.10;;
25359;SDS011;13311;51.386;0.016;2024-02-04T04:51:39;0.03;;;0.03;;
25359;SDS011;13311;51.386;0.016;2024-02-04T04:56:44;0.10;;;0.10;;
25359;SDS011;13311;51.386;0.016;2024-02-04T05:01:45;0.45;;;0.30;;
25359;SDS011;13311;51.386;0.016;2024-02-04T05:06:49;0.63;;;0.20;;
25359;SDS011;13311;51.386;0.016;2024-02-04T05:11:51;0.60;;;0.20;;
25359;SDS011;13311;51.386;0.016;2024-02-04T05:16:51;0.10;;;0.10;;
25359;SDS011;13311;51.386;0.016;2024-02-04T05:21:52;0.40;;;0.05;;
25359;SDS011;13311;51.386;0.016;2024-02-04T05:26:53;0.73;;;0.15;;
25359;SDS011;13311;51.386;0.016;2024-02-04T05:31:54;0.20;;;0.15;;
25359;SDS011;13311;51.386;0.016;2024-02-04T05:36:54;0.85;;;0.28;;
25359;SDS011;13311;51.386;0.016;2024-02-04T05:41:55;0.20;;;0.08;;
25359;SDS011;13311;51.386;0.016;2024-02-04T05:46:56;0.15;;;0.10;;
25359;SDS011;13311;51.386;0.016;2024-02-04T05:51:56;0.65;;;0.40;;
25359;SDS011;13311;51.386;0.016;2024-02-04T05:56:57;0.00;;;0.00;;
25359;SDS011;13311;51.386;0.016;2024-02-04T06:01:58;0.90;;;0.10;;
25359;SDS011;13311;51.386;0.016;2024-02-04T06:06:59;0.10;;;0.00;;
25359;SDS011;13311;51.386;0.016;2024-02-04T06:11:59;0.70;;;0.10;;
25359;SDS011;13311;51.386;0.016;2024-02-04T06:17:00;0.25;;;0.10;;
25359;SDS011;13311;51.386;0.016;2024-02-04T06:22:01;0.45;;;0.45;;
25359;SDS011;13311;51.386;0.016;2024-02-04T06:27:02;0.63;;;0.10;;
25359;SDS011;13311;51.386;0.016;2024-02-04T06:32:03;0.20;;;0.10;;
25359;SDS011;13311;51.386;0.016;2024-02-04T06:37:05;0.20;;;0.10;;
25359;SDS011;13311;51.386;0.016;2024-02-04T06:42:05;0.30;;;0.22;;
25359;SDS011;13311;51.386;0.016;2024-02-04T06:47:06;0.10;;;0.03;;
25359;SDS011;13311;51.386;0.016;2024-02-04T06:52:09;0.43;;;0.20;;
25359;SDS011;13311;51.386;0.016;2024-02-04T06:57:09;0.40;;;0.20;;
25359;SDS011;13311;51.386;0.016;2024-02-04T07:02:11;1.75;;;0.10;;
25359;SDS011;13311;51.386;0.016;2024-02-04T07:07:11;0.55;;;0.10;;
25359;SDS011;13311;51.386;0.016;2024-02-04T07:12:12;0.60;;;0.10;;
25359;SDS011;13311;51.386;0.016;2024-02-04T07:17:13;1.02;;;0.10;;
25359;SDS011;13311;51.386;0.016;2024-02-04T07:22:13;0.30;;;0.00;;
25359;SDS011;13311;51.386;0.016;2024-02-04T07:27:15;0.20;;;0.10;;
25359;SDS011;13311;51.386;0.016;2024-02-04T07:32:16;0.30;;;0.10;;
25359;SDS011;13311;51.386;0.016;2024-02-04T07:37:17;0.35;;;0.10;;
25359;SDS011;13311;51.386;0.016;2024-02-04T07:42:18;0.77;;;0.28;;
25359;SDS011;13311;51.386;0.016;2024-02-04T07:47:19;0.30;;;0.15;;
25359;SDS011;13311;51.386;0.016;2024-02-04T07:52:21;2.63;;;0.85;;
25359;SDS011;13311;51.386;0.016;2024-02-04T07:57:22;0.40;;;0.13;;
25359;SDS011;13311;51.386;0.016;2024-02-04T08:02:22;0.08;;;0.08;;
25359;SDS011;13311;51.386;0.016;2024-02-04T08:07:23;0.32;;;0.10;;
25359;SDS011;13311;51.386;0.016;2024-02-04T08:12:24;0.68;;;0.10;;
25359;SDS011;13311;51.386;0.016;2024-02-04T08:17:24;1.63;;;0.30;;
25359;SDS011;13311;51.386;0.016;2024-02-04T08:22:26;1.05;;;0.20;;
25359;SDS011;13311;51.386;0.016;2024-02-04T08:27:27;0.40;;;0.30;;
25359;SDS011;13311;51.386;0.016;2024-02-04T08:32:28;0.52;;;0.40;;
25359;SDS011;13311;51.386;0.016;2024-02-04T08:37:29;1.17;;;0.30;;
25359;SDS011;13311;51.386;0.016;2024-02-04T08:42:29;2.05;;;0.55;;
25359;SDS011;13311;51.386;0.016;2024-02-04T08:47:30;0.65;;;0.20;;
25359;SDS011;13311;51.386;0.016;2024-02-04T08:52:31;1.35;;;0.30;;
25359;SDS011;13311;51.386;0.016;2024-02-04T08:57:32;0.98;;;0.30;;
25359;SDS011;13311;51.386;0.016;2024-02-04T09:02:32;1.52;;;0.22;;
25359;SDS011;13311;51.386;0.016;2024-02-04T09:07:34;1.17;;;0.45;;
25359;SDS011;13311;51.386;0.016;2024-02-04T09:12:35;1.25;;;0.17;;
25359;SDS011;13311;51.386;0.016;2024-02-04T09:17:35;0.85;;;0.65;;
25359;SDS011;13311;51.386;0.016;2024-02-04T09:22:37;0.90;;;0.43;;
25359;SDS011;13311;51.386;0.016;2024-02-04T09:27:39;0.60;;;0.20;;
25359;SDS011;13311;51.386;0.016;2024-02-04T09:32:39;1.90;;;0.57;;
25359;SDS011;13311;51.386;0.016;2024-02-04T09:37:41;0.47;;;0.20;;
25359;SDS011;13311;51.386;0.016;2024-02-04T09:42:42;3.25;;;0.30;;
25359;SDS011;13311;51.386;0.016;2024-02-04T09:47:44;0.68;;;0.40;;
25359;SDS011;13311;51.386;0.016;2024-02-04T09:52:48;0.88;;;0.40;;
25359;SDS011;13311;51.386;0.016;2024-02-04T09:57:52;0.20;;;0.20;;
25359;SDS011;13311;51.386;0.016;2024-02-04T10:02:53;1.35;;;0.65;;
25359;SDS011;13311;51.386;0.016;2024-02-04T10:07:56;1.00;;;0.38;;
25359;SDS011;13311;51.386;0.016;2024-02-04T10:12:56;0.90;;;0.50;;
25359;SDS011;13311;51.386;0.016;2024-02-04T10:17:57;1.05;;;0.65;;
25359;SDS011;13311;51.386;0.016;2024-02-04T10:22:58;1.67;;;0.60;;
25359;SDS011;13311;51.386;0.016;2024-02-04T10:27:59;1.40;;;0.47;;
25359;SDS011;13311;51.386;0.016;2024-02-04T10:33:00;1.08;;;0.65;;
25359;SDS011;13311;51.386;0.016;2024-02-04T10:38:01;0.95;;;0.22;;
25359;SDS011;13311;51.386;0.016;2024-02-04T10:43:03;0.65;;;0.22;;
25359;SDS011;13311;51.386;0.016;2024-02-04T10:48:07;1.75;;;0.50;;
25359;SDS011;13311;51.386;0.016;2024-02-04T10:53:08;0.57;;;0.25;;
25359;SDS011;13311;51.386;0.016;2024-02-04T10:58:14;2.13;;;0.40;;
25359;SDS011;13311;51.386;0.016;2024-02-04T11:03:16;2.53;;;0.60;;
25359;SDS011;13311;51.386;0.016;2024-02-04T11:08:18;0.30;;;0.22;;
25359;SDS011;13311;51.386;0.016;2024-02-04T11:13:20;0.60;;;0.30;;
25359;SDS011;13311;51.386;0.016;2024-02-04T11:29:29;1.33;;;0.40;;
25359;SDS011;13311;51.386;0.016;2024-02-04T11:34:30;2.45;;;0.60;;
25359;SDS011;13311;51.386;0.016;2024-02-04T11:39:33;2.38;;;0.40;;
25359;SDS011;13311;51.386;0.016;2024-02-04T11:44:33;0.52;;;0.30;;
25359;SDS011;13311;51.386;0.016;2024-02-04T11:49:34;1.23;;;0.32;;
25359;SDS011;13311;51.386;0.016;2024-02-04T11:54:35;3.28;;;0.50;;
25359;SDS011;13311;51.386;0.016;2024-02-04T11:59:35;2.90;;;0.50;;
25359;SDS011;13311;51.386;0.016;2024-02-04T12:04:36;2.15;;;0.45;;
25359;SDS011;13311;51.386;0.016;2024-02-04T12:09:39;5.15;;;0.68;;
25359;SDS011;13311;51.386;0.016;2024-02-04T12:14:41;1.80;;;0.40;;
25359;SDS011;13311;51.386;0.016;2024-02-04T12:19:42;1.10;;;0.30;;
25359;SDS011;13311;51.386;0.016;2024-02-04T12:24:43;1.25;;;0.50;;
25359;SDS011;13311;51.386;0.016;2024-02-04T12:29:45;1.27;;;0.20;;
25359;SDS011;13311;51.386;0.016;2024-02-04T12:34:51;2.08;;;0.40;;
25359;SDS011;13311;51.386;0.016;2024-02-04T12:39:56;2.35;;;0.32;;
25359;SDS011;13311;51.386;0.016;2024-02-04T12:44:59;1.48;;;0.28;;
25359;SDS011;13311;51.386;0.016;2024-02-04T12:50:00;0.70;;;0.30;;
25359;SDS011;13311;51.386;0.016;2024-02-04T12:55:02;0.43;;;0.20;;
25359;SDS011;13311;51.386;0.016;2024-02-04T13:00:04;0.45;;;0.30;;
25359;SDS011;13311;51.386;0.016;2024-02-04T13:05:20;0.90;;;0.22;;
25359;SDS011;13311;51.386;0.016;2024-02-04T13:10:28;1.40;;;0.30;;
25359;SDS011;13311;51.386;0.016;2024-02-04T13:15:32;0.55;;;0.30;;
25359;SDS011;13311;51.386;0.016;2024-02-04T13:20:54;0.20;;;0.10;;
25359;SDS011;13311;51.386;0.016;2024-02-04T13:25:54;0.88;;;0.28;;
25359;SDS011;13311;51.386;0.016;2024-02-04T13:30:55;0.73;;;0.30;;
25359;SDS011;13311;51.386;0.016;2024-02-04T13:35:56;0.82;;;0.40;;
25359;SDS011;13311;51.386;0.016;2024-02-04T13:40:57;1.20;;;0.30;;
25359;SDS011;13311;51.386;0.016;2024-02-04T13:46:01;0.98;;;0.22;;
25359;SDS011;13311;51.386;0.016;2024-02-04T13:51:03;1.90;;;0.30;;
25359;SDS011;13311;51.386;0.016;2024-02-04T13:56:05;1.15;;;0.40;;
25359;SDS011;13311;51.386;0.016;2024-02-04T14:01:06;0.75;;;0.52;;
25359;SDS011;13311;51.386;0.016;2024-02-04T14:06:07;2.05;;;0.60;;
25359;SDS011;13311;51.386;0.016;2024-02-04T14:11:08;1.15;;;0.68;;
25359;SDS011;13311;51.386;0.016;2024-02-04T14:16:08;1.05;;;0.47;;
25359;SDS011;13311;51.386;0.016;2024-02-04T14:21:09;2.22;;;1.13;;
25359;SDS011;13311;51.386;0.016;2024-02-04T14:26:16;2.30;;;0.40;;
25359;SDS011;13311;51.386;0.016;2024-02-04T14:31:18;2.00;;;0.47;;
25359;SDS011;13311;51.386;0.016;2024-02-04T14:36:19;2.55;;;0.82;;
25359;SDS011;13311;51.386;0.016;2024-02-04T14:41:20;1.65;;;0.50;;
25359;SDS011;13311;51.386;0.016;2024-02-04T14:46:22;1.35;;;0.60;;
25359;SDS011;13311;51.386;0.016;2024-02-04T14:51:23;1.75;;;0.70;;
25359;SDS011;13311;51.386;0.016;2024-02-04T14:56:24;1.77;;;0.75;;
25359;SDS011;13311;51.386;0.016;2024-02-04T15:01:25;1.40;;;0.65;;
25359;SDS011;13311;51.386;0.016;2024-02-04T15:06:26;4.15;;;0.88;;
25359;SDS011;13311;51.386;0.016;2024-02-04T15:11:27;4.50;;;1.15;;
25359;SDS011;13311;51.386;0.016;2024-02-04T15:16:29;2.30;;;1.10;;
25359;SDS011;13311;51.386;0.016;2024-02-04T15:21:30;3.00;;;1.15;;
25359;SDS011;13311;51.386;0.016;2024-02-04T15:26:32;2.45;;;0.80;;
25359;SDS011;13311;51.386;0.016;2024-02-04T15:31:34;5.97;;;1.80;;
25359;SDS011;13311;51.386;0.016;2024-02-04T15:36:35;3.30;;;1.75;;
25359;SDS011;13311;51.386;0.016;2024-02-04T15:41:36;2.28;;;0.88;;
25359;SDS011;13311;51.386;0.016;2024-02-04T15:46:38;2.40;;;0.70;;
25359;SDS011;13311;51.386;0.016;2024-02-04T15:51:43;4.47;;;1.10;;
25359;SDS011;13311;51.386;0.016;2024-02-04T15:56:45;1.30;;;0.65;;
25359;SDS011;13311;51.386;0.016;2024-02-04T16:02:02;3.03;;;1.10;;
25359;SDS011;13311;51.386;0.016;2024-02-04T16:07:04;2.67;;;1.25;;
25359;SDS011;13311;51.386;0.016;2024-02-04T16:12:05;2.95;;;1.15;;
25359;SDS011;13311;51.386;0.016;2024-02-04T16:17:11;2.15;;;1.00;;
25359;SDS011;13311;51.386;0.016;2024-02-04T16:22:17;3.50;;;1.00;;
25359;SDS011;13311;51.386;0.016;2024-02-04T16:27:19;2.72;;;1.25;;
25359;SDS011;13311;51.386;0.016;2024-02-04T16:32:20;4.70;;;1.00;;
25359;SDS011;13311;51.386;0.016;2024-02-04T16:37:20;10.15;;;1.58;;
25359;SDS011;13311;51.386;0.016;2024-02-04T16:42:21;4.45;;;1.20;;
25359;SDS011;13311;51.386;0.016;2024-02-04T16:47:24;5.85;;;1.65;;
25359;SDS011;13311;51.386;0.016;2024-02-04T16:52:28;3.30;;;1.00;;
25359;SDS011;13311;51.386;0.016;2024-02-04T16:57:29;4.30;;;1.35;;
25359;SDS011;13311;51.386;0.016;2024-02-04T17:02:30;5.28;;;1.38;;
25359;SDS011;13311;51.386;0.016;2024-02-04T17:07:31;8.50;;;1.77;;
25359;SDS011;13311;51.386;0.016;2024-02-04T17:12:32;4.18;;;1.60;;
25359;SDS011;13311;51.386;0.016;2024-02-04T17:17:33;6.30;;;1.63;;
25359;SDS011;13311;51.386;0.016;2024-02-04T17:22:37;7.63;;;1.80;;
25359;SDS011;13311;51.386;0.016;2024-02-04T17:27:39;5.32;;;2.00;;
25359;SDS011;13311;51.386;0.016;2024-02-04T17:32:41;6.40;;;2.20;;
25359;SDS011;13311;51.386;0.016;2024-02-04T17:37:43;9.75;;;2.28;;
25359;SDS011;13311;51.386;0.016;2024-02-04T17:42:44;5.50;;;2.10;;
25359;SDS011;13311;51.386;0.016;2024-02-04T17:47:45;9.68;;;2.92;;
25359;SDS011;13311;51.386;0.016;2024-02-04T17:52:46;9.70;;;3.72;;
25359;SDS011;13311;51.386;0.016;2024-02-04T17:57:47;13.98;;;3.72;;
25359;SDS011;13311;51.386;0.016;2024-02-04T18:02:49;10.85;;;3.03;;
25359;SDS011;13311;51.386;0.016;2024-02-04T18:07:49;9.73;;;3.28;;
25359;SDS011;13311;51.386;0.016;2024-02-04T18:12:52;12.32;;;3.22;;
25359;SDS011;13311;51.386;0.016;2024-02-04T18:17:53;10.10;;;3.47;;
25359;SDS011;13311;51.386;0.016;2024-02-04T18:22:54;10.55;;;3.60;;
25359;SDS011;13311;51.386;0.016;2024-02-04T18:27:54;7.65;;;2.75;;
25359;SDS011;13311;51.386;0.016;2024-02-04T18:32:55;10.32;;;3.25;;
25359;SDS011;13311;51.386;0.016;2024-02-04T18:37:57;10.65;;;3.63;;
25359;SDS011;13311;51.386;0.016;2024-02-04T18:42:58;18.80;;;6.65;;
25359;SDS011;13311;51.386;0.016;2024-02-04T18:47:58;10.65;;;3.92;;
25359;SDS011;13311;51.386;0.016;2024-02-04T18:52:59;15.43;;;4.32;;
25359;SDS011;13311;51.386;0.016;2024-02-04T18:58:00;12.65;;;3.53;;
25359;SDS011;13311;51.386;0.016;2024-02-04T19:03:00;16.52;;;3.92;;
25359;SDS011;13311;51.386;0.016;2024-02-04T19:08:01;16.70;;;5.13;;
25359;SDS011;13311;51.386;0.016;2024-02-04T19:13:02;23.00;;;4.43;;
25359;SDS011;13311;51.386;0.016;2024-02-04T19:18:04;12.10;;;3.70;;
25359;SDS011;13311;51.386;0.016;2024-02-04T19:23:06;18.90;;;4.82;;
25359;SDS011;13311;51.386;0.016;2024-02-04T19:28:09;19.15;;;5.45;;
25359;SDS011;13311;51.386;0.016;2024-02-04T19:33:09;24.00;;;4.82;;
25359;SDS011;13311;51.386;0.016;2024-02-04T19:38:11;11.60;;;3.92;;
25359;SDS011;13311;51.386;0.016;2024-02-04T19:43:12;25.35;;;5.53;;
25359;SDS011;13311;51.386;0.016;2024-02-04T19:48:13;16.40;;;5.10;;
25359;SDS011;13311;51.386;0.016;2024-02-04T19:53:13;24.67;;;5.85;;
25359;SDS011;13311;51.386;0.016;2024-02-04T19:58:14;21.30;;;5.07;;
25359;SDS011;13311;51.386;0.016;2024-02-04T20:03:15;20.02;;;4.90;;
25359;SDS011;13311;51.386;0.016;2024-02-04T20:08:17;21.15;;;4.85;;
25359;SDS011;13311;51.386;0.016;2024-02-04T20:13:18;28.33;;;6.97;;
25359;SDS011;13311;51.386;0.016;2024-02-04T20:18:19;17.80;;;5.25;;
25359;SDS011;13311;51.386;0.016;2024-02-04T20:23:20;15.13;;;4.68;;
25359;SDS011;13311;51.386;0.016;2024-02-04T20:28:21;21.15;;;4.85;;
25359;SDS011;13311;51.386;0.016;2024-02-04T20:33:23;24.83;;;5.38;;
25359;SDS011;13311;51.386;0.016;2024-02-04T20:38:25;19.17;;;4.72;;
25359;SDS011;13311;51.386;0.016;2024-02-04T20:43:26;22.20;;;5.88;;
25359;SDS011;13311;51.386;0.016;2024-02-04T20:48:27;13.75;;;4.65;;
25359;SDS011;13311;51.386;0.016;2024-02-04T20:53:27;16.17;;;3.83;;
25359;SDS011;13311;51.386;0.016;2024-02-04T20:58:28;22.20;;;6.65;;
25359;SDS011;13311;51.386;0.016;2024-02-04T21:03:30;16.13;;;4.80;;
25359;SDS011;13311;51.386;0.016;2024-02-04T21:08:31;16.77;;;5.07;;
25359;SDS011;13311;51.386;0.016;2024-02-04T21:13:32;18.05;;;5.43;;
25359;SDS011;13311;51.386;0.016;2024-02-04T21:18:32;26.20;;;6.38;;
25359;SDS011;13311;51.386;0.016;2024-02-04T21:23:33;23.48;;;5.40;;
25359;SDS011;13311;51.386;0.016;2024-02-04T21:28:34;31.35;;;6.78;;
25359;SDS011;13311;51.386;0.016;2024-02-04T21:33:36;22.15;;;5.88;;
25359;SDS011;13311;51.386;0.016;2024-02-04T21:38:37;24.40;;;5.40;;
25359;SDS011;13311;51.386;0.016;2024-02-04T21:43:39;27.30;;;6.53;;
25359;SDS011;13311;51.386;0.016;2024-02-04T21:48:42;14.55;;;4.28;;
25359;SDS011;13311;51.386;0.016;2024-02-04T21:53:44;19.73;;;4.70;;
25359;SDS011;13311;51.386;0.016;2024-02-04T21:58:45;22.58;;;5.75;;
25359;SDS011;13311;51.386;0.016;2024-02-04T22:03:45;30.88;;;6.25;;
25359;SDS011;13311;51.386;0.016;2024-02-04T22:08:46;22.30;;;6.30;;
25359;SDS011;13311;51.386;0.016;2024-02-04T22:13:47;17.35;;;4.38;;
25359;SDS011;13311;51.386;0.016;2024-02-04T22:18:47;18.10;;;5.00;;
25359;SDS011;13311;51.386;0.016;2024-02-04T22:23:48;14.90;;;4.10;;
25359;SDS011;13311;51.386;0.016;2024-02-04T22:28:50;20.13;;;5.38;;
25359;SDS011;13311;51.386;0.016;2024-02-04T22:33:51;18.50;;;4.88;;
25359;SDS011;13311;51.386;0.016;2024-02-04T22:38:53;12.73;;;4.75;;
25359;SDS011;13311;51.386;0.016;2024-02-04T22:43:54;13.60;;;3.70;;
25359;SDS011;13311;51.386;0.016;2024-02-04T22:48:54;24.50;;;5.80;;
25359;SDS011;13311;51.386;0.016;2024-02-04T22:53:56;21.75;;;4.93;;
25359;SDS011;13311;51.386;0.016;2024-02-04T22:58:58;12.80;;;4.10;;
25359;SDS011;13311;51.386;0.016;2024-02-04T23:03:59;16.17;;;4.63;;
25359;SDS011;13311;51.386;0.016;2024-02-04T23:09:00;24.17;;;5.97;;
25359;SDS011;13311;51.386;0.016;2024-02-04T23:14:01;24.45;;;5.25;;
25359;SDS011;13311;51.386;0.016;2024-02-04T23:19:01;20.05;;;5.65;;
25359;SDS011;13311;51.386;0.016;2024-02-04T23:24:02;25.40;;;5.75;;
25359;SDS011;13311;51.386;0.016;2024-02-04T23:29:03;31.00;;;5.28;;
25359;SDS011;13311;51.386;0.016;2024-02-04T23:34:04;15.75;;;4.43;;
25359;SDS011;13311;51.386;0.016;2024-02-04T23:39:05;19.25;;;4.93;;
25359;SDS011;13311;51.386;0.016;2024-02-04T23:44:06;23.40;;;5.47;;
25359;SDS011;13311;51.386;0.016;2024-02-04T23:49:07;17.10;;;5.55;;
25359;SDS011;13311;51.386;0.016;2024-02-04T23:54:09;18.08;;;3.90;;
25359;SDS011;13311;51.386;0.016;2024-02-04T23:59:10;19.58;;;4.13;;
